Terminal Aerodrome Forecast
Issued by NWS

Current Version | Previous Version | Text Only | Print | Product List | Glossary Off
Versions: 1 2 3 4 5 6 7 8 9 10 11 12 13 14 15 16 17 18 19 20 21 22 23 24

000
FTUS41 KRLX 200250 AAA
TAFCKB
TAF AMD
KCKB 200250Z 2003/2024 00000KT P6SM BKN040
     FM200500 00000KT P6SM BKN025
     FM200600 00000KT 5SM BR BKN015
     FM201400 00000KT P6SM BKN025
     FM201700 VRB03KT P6SM SHRA BKN035
     FM201800 VRB03KT P6SM SHRA VCTS BKN035CB
     FM202000 VRB03KT P6SM BKN040=

USA.gov is the U.S. government's official web portal to all federal, state and local government web resources and services.